Pondicherry, India
Current Conditions -  °F | °C
As of 9:40 AM on Sunday 23 Nov 2014 (Local Time) from VOMM Reporting Station
Haze Haze  
Wind Chill: 82°   Ceiling: Unl
Heat Index: 89°   Visibility: 1.5mi
Dew Point: 75°   Wind: 7mph
Humidity: 79%   Direction: 20°NNE
Pressure: 29.91"   Gusts: NA
Location:  11.93°N, 79.88°E
Report Text: VOMM 230440Z 02006KT 2500 BR SCT018 SCT100 28/24 Q1013 BECMG 3000 BR
Loading
Personal Weather Stations






























Interactive Weather Map New forecast layout! Learn more

10-Day Weather Forecast

Advertisements
Track Severe Weather on mobile